메인 페이지
METAR-TAF:

METAR-TAF

공항 :

사카테카스 주, 멕시코

위도: 22-54N, 경도: 102-41W, 고도: 2140m

현재 날씨관측

예보는 5 시간 17분 전, 05:40시(UTC)에 발표되었습니다.
무풍
온도 19°C
습도 52%
기압 1024 hPa
시정: 16.1km
맑음

METAR: MMZC 300540Z 00000KT 10SM SKC 19/09 A3023

시각: 04:57 (10:57 UTC)

예보

예보는 6 시간 51분 전, 04:06시(UTC)에 발표되었습니다.
예보 대상 시간: 30일 06시부터 31일 12시까지 (UTC)
남남서5kt
시정: 10km
고도 25000ft 상공 구름 많음
30일 1600시부터 (UTC)
남서12kt
시정: 10km
고도 25000ft 상공 구름 보통
31일 0300시부터 (UTC)
남남서5kt
시정: 10km
고도 25000ft 상공 구름 보통

TAF: MMZC 300406Z 3006/3112 20005KT P6SM BKN250 TX27/3020Z TN12/3012Z FM301600 23012KT P6SM SCT250 FM310300 20005KT P6SM SCT250

4,000개 이상의 공항 관측 자료 및 예보 (METAR 및 TAF 보고).

지도상에서 검색 가능한 기상관측소가 노란 점과 빨간 점으로 표시되어 있습니다.

기상관측소 명을 보려면 표시 위로 마우스를 이동하세요.

날씨 관측과 예보를 보려면 클릭하세요.

지도 변경 : 확대하려면 엑스 표시가 있는 녹색 버튼, 축소하려면 빼기 표시가 있는 녹색 버튼, 다음 페이지의 지도를 보려면 녹색 화살표를 클릭하세요.


METAR-TAF: